Time;durP1;ratioP1;P1;durP2;ratioP2;P2;SDS_P1;SDS_P2;PMS_P1;PMS_P2;Temp;Humidity;BMP_temperature;BMP_pressure;BME280_temperature;BME280_humidity;BME280_pressure;Samples;Min_cycle;Max_cycle;Signal;HPM_P1;HPM_P2
2023/05/10 00:01:14;;;;;;;13.43;8.70;;;;;;;;;;4925648;29;20454;-65
2023/05/10 00:03:40;;;;;;;13.32;8.73;;;;;;;;;;4926414;29;20039;-67
2023/05/10 00:06:05;;;;;;;15.05;9.00;;;;;;;;;;4918220;29;20040;-68
2023/05/10 00:08:31;;;;;;;13.85;8.70;;;;;;;;;;4921341;29;20530;-68
2023/05/10 00:10:56;;;;;;;14.50;8.75;;;;;;;;;;4906838;29;20507;-65
2023/05/10 00:13:21;;;;;;;13.37;8.80;;;;;;;;;;4918881;29;20043;-65
2023/05/10 00:15:46;;;;;;;16.30;8.52;;;;;;;;;;4921055;29;20024;-66
2023/05/10 00:18:12;;;;;;;15.40;8.67;;;;;;;;;;4925578;29;20061;-65
2023/05/10 00:20:37;;;;;;;13.13;8.00;;;;;;;;;;4918278;29;20036;-65
2023/05/10 00:23:02;;;;;;;13.63;8.47;;;;;;;;;;4920834;29;20642;-67
2023/05/10 00:25:27;;;;;;;15.13;8.53;;;;;;;;;;4911531;29;20290;-65
2023/05/10 00:27:55;;;;;;;15.40;9.18;;;;;;;;;;4918682;29;20047;-66
2023/05/10 00:30:20;;;;;;;13.40;7.95;;;;;;;;;;4920645;29;20027;-66
2023/05/10 00:32:45;;;;;;;15.85;8.60;;;;;;;;;;4920369;29;20398;-64
2023/05/10 00:35:10;;;;;;;13.67;8.40;;;;;;;;;;4922310;29;20020;-65
2023/05/10 00:37:36;;;;;;;15.35;8.57;;;;;;;;;;4919760;29;20630;-64
2023/05/10 00:40:01;;;;;;;13.60;7.93;;;;;;;;;;4922759;29;20040;-65
2023/05/10 00:42:26;;;;;;;13.97;8.13;;;;;;;;;;4922288;29;20482;-66
2023/05/10 00:44:52;;;;;;;13.07;8.10;;;;;;;;;;4921059;29;20278;-65
2023/05/10 00:47:17;;;;;;;12.02;8.10;;;;;;;;;;4922305;29;21122;-65
2023/05/10 00:49:43;;;;;;;13.73;7.70;;;;;;;;;;4902594;29;20040;-68
2023/05/10 00:52:08;;;;;;;14.38;7.63;;;;;;;;;;4924054;29;20087;-65
2023/05/10 00:54:34;;;;;;;10.90;7.20;;;;;;;;;;4927898;29;20045;-66
2023/05/10 00:56:59;;;;;;;14.35;7.53;;;;;;;;;;4926841;29;20028;-65
2023/05/10 00:59:24;;;;;;;15.27;7.82;;;;;;;;;;4929957;29;20031;-67
2023/05/10 01:01:51;;;;;;;11.32;7.07;;;;;;;;;;4921716;29;20444;-66
2023/05/10 01:04:16;;;;;;;12.18;7.25;;;;;;;;;;4920709;29;20040;-66
2023/05/10 01:06:42;;;;;;;9.98;6.65;;;;;;;;;;4920424;29;20031;-65
2023/05/10 01:09:07;;;;;;;12.38;6.90;;;;;;;;;;4921604;29;20036;-66
2023/05/10 01:11:34;;;;;;;10.68;6.90;;;;;;;;;;4921748;29;20036;-66
2023/05/10 01:14:00;;;;;;;11.18;6.95;;;;;;;;;;4921309;29;20028;-65
2023/05/10 01:16:26;;;;;;;10.15;6.65;;;;;;;;;;4907447;29;20095;-67
2023/05/10 01:18:52;;;;;;;11.43;6.53;;;;;;;;;;4907872;29;20050;-65
2023/05/10 01:21:20;;;;;;;12.25;6.88;;;;;;;;;;4907071;29;20553;-66
2023/05/10 01:23:48;;;;;;;10.55;6.47;;;;;;;;;;4923844;29;20024;-64
2023/05/10 01:26:14;;;;;;;11.40;6.32;;;;;;;;;;4911497;29;20060;-64
2023/05/10 01:28:40;;;;;;;14.65;6.82;;;;;;;;;;4924184;29;20078;-65
2023/05/10 01:31:08;;;;;;;10.23;6.32;;;;;;;;;;4919385;29;20055;-68
2023/05/10 01:33:38;;;;;;;13.13;6.25;;;;;;;;;;4925439;29;20035;-64
2023/05/10 01:36:16;;;;;;;10.40;6.00;;;;;;;;;;4926067;29;20028;-66
2023/05/10 01:38:51;;;;;;;8.55;5.95;;;;;;;;;;4926062;29;20031;-66
2023/05/10 01:41:22;;;;;;;9.57;6.00;;;;;;;;;;4925784;29;20035;-68
2023/05/10 01:43:53;;;;;;;12.40;6.28;;;;;;;;;;4924615;29;20501;-67
2023/05/10 01:46:22;;;;;;;8.13;5.50;;;;;;;;;;4924677;29;20074;-65
2023/05/10 01:48:48;;;;;;;9.75;5.80;;;;;;;;;;4916729;29;20062;-65
2023/05/10 01:51:18;;;;;;;13.05;6.05;;;;;;;;;;4927878;29;20063;-66
2023/05/10 01:53:45;;;;;;;11.68;5.80;;;;;;;;;;4926140;29;20049;-66
2023/05/10 01:56:11;;;;;;;10.55;5.70;;;;;;;;;;4926342;29;20052;-66
2023/05/10 01:58:38;;;;;;;9.00;5.70;;;;;;;;;;4915665;29;20075;-67
2023/05/10 02:01:04;;;;;;;10.23;5.40;;;;;;;;;;4927951;29;20516;-65
2023/05/10 02:03:30;;;;;;;8.77;5.88;;;;;;;;;;4928291;29;20474;-66
2023/05/10 02:05:57;;;;;;;8.43;5.30;;;;;;;;;;4925454;29;20036;-65
2023/05/10 02:08:22;;;;;;;11.63;5.47;;;;;;;;;;4924177;29;20111;-67
2023/05/10 02:10:49;;;;;;;8.65;5.80;;;;;;;;;;4925699;29;20514;-67
2023/05/10 02:13:15;;;;;;;20.73;6.28;;;;;;;;;;4927729;29;20035;-67
2023/05/10 02:15:41;;;;;;;11.80;5.07;;;;;;;;;;4912844;29;20564;-66
2023/05/10 02:18:07;;;;;;;12.25;5.57;;;;;;;;;;4923713;29;20067;-66
2023/05/10 02:20:33;;;;;;;10.23;5.25;;;;;;;;;;4928838;29;20119;-66
2023/05/10 02:22:59;;;;;;;8.80;4.63;;;;;;;;;;4926571;29;20024;-66
2023/05/10 02:25:25;;;;;;;11.02;4.70;;;;;;;;;;4925700;29;20028;-66
2023/05/10 02:27:51;;;;;;;9.15;4.78;;;;;;;;;;4927380;29;20467;-65
2023/05/10 02:30:17;;;;;;;9.13;4.88;;;;;;;;;;4911710;29;20437;-66
2023/05/10 02:32:43;;;;;;;9.52;4.88;;;;;;;;;;4927806;29;20051;-65
2023/05/10 02:35:09;;;;;;;7.82;4.40;;;;;;;;;;4927410;29;20066;-66
2023/05/10 02:37:36;;;;;;;6.93;4.68;;;;;;;;;;4914723;29;20603;-66
2023/05/10 02:40:03;;;;;;;6.47;4.45;;;;;;;;;;4922218;29;20032;-66
2023/05/10 02:42:29;;;;;;;9.40;4.60;;;;;;;;;;4921996;29;20114;-66
2023/05/10 02:45:00;;;;;;;7.22;4.22;;;;;;;;;;4922193;29;20111;-65
2023/05/10 02:47:25;;;;;;;7.80;4.72;;;;;;;;;;4922567;29;20063;-65
2023/05/10 02:49:50;;;;;;;8.30;4.22;;;;;;;;;;4924231;29;20131;-65
2023/05/10 02:52:19;;;;;;;6.80;4.80;;;;;;;;;;4925189;29;20119;-67
2023/05/10 02:54:45;;;;;;;7.57;4.38;;;;;;;;;;4920227;29;20032;-67
2023/05/10 02:57:11;;;;;;;7.45;4.30;;;;;;;;;;4920165;29;20047;-63
2023/05/10 02:59:36;;;;;;;7.38;3.85;;;;;;;;;;4924747;29;20049;-64
2023/05/10 03:02:03;;;;;;;6.47;4.20;;;;;;;;;;4923473;29;20055;-64
2023/05/10 03:04:28;;;;;;;7.85;4.45;;;;;;;;;;4907497;29;20032;-67
2023/05/10 03:06:53;;;;;;;6.73;3.90;;;;;;;7.09;nan;100759.69;4912158;29;20096;-66
2023/05/10 03:09:19;;;;;;;8.82;4.20;;;;;;;;;;4908116;29;20282;-67
2023/05/10 03:11:54;;;;;;;7.82;4.00;;;;;;;;;;4921143;29;20048;-68
2023/05/10 03:14:39;;;;;;;9.05;4.78;;;;;;;;;;4925191;29;20031;-67
2023/05/10 03:17:15;;;;;;;8.27;4.43;;;;;;;;;;4922730;29;20043;-67
2023/05/10 03:19:47;;;;;;;8.52;4.22;;;;;;;;;;4923004;29;20067;-66
2023/05/10 03:22:16;;;;;;;10.10;4.32;;;;;;;;;;4920213;29;20067;-66
2023/05/10 03:24:42;;;;;;;10.30;4.18;;;;;;;;;;4922515;29;20257;-67
2023/05/10 03:27:07;;;;;;;7.40;4.38;;;;;;;;;;4919020;29;20044;-66
2023/05/10 03:29:33;;;;;;;10.60;4.80;;;;;;;;;;4921653;29;20063;-65
2023/05/10 03:31:59;;;;;;;10.23;4.75;;;;;;;;;;4922145;29;20043;-65
2023/05/10 03:34:25;;;;;;;9.05;4.32;;;;;;;;;;4921374;29;20038;-65
2023/05/10 03:36:50;;;;;;;7.95;4.47;;;;;;;;;;4921593;29;20060;-64
2023/05/10 03:39:15;;;;;;;6.73;4.60;;;;;;;;;;4921866;29;20028;-64
2023/05/10 03:41:41;;;;;;;9.37;4.40;;;;;;;;;;4922061;29;20282;-65
2023/05/10 03:44:06;;;;;;;6.68;4.53;;;;;;;;;;4920908;29;20369;-65
2023/05/10 03:46:31;;;;;;;8.88;5.05;;;;;;;;;;4920079;29;20036;-63
2023/05/10 03:48:57;;;;;;;7.82;4.60;;;;;;;;;;4923874;29;20119;-66
2023/05/10 03:51:22;;;;;;;8.03;4.50;;;;;;;;;;4925077;28;20512;-66
2023/05/10 03:53:47;;;;;;;6.18;4.32;;;;;;;;;;4922301;29;20447;-65
2023/05/10 03:56:12;;;;;;;10.60;4.00;;;;;;;;;;4924628;29;20035;-65
2023/05/10 03:58:38;;;;;;;5.90;3.87;;;;;;;;;;4922794;29;20036;-75
2023/05/10 04:01:03;;;;;;;6.87;4.23;;;;;;;;;;4921312;29;20291;-73
2023/05/10 04:03:28;;;;;;;8.40;4.05;;;;;;;;;;4925941;29;20708;-67
2023/05/10 04:06:00;;;;;;;9.20;4.20;;;;;;;;;;4918132;29;20536;-67
2023/05/10 04:08:26;;;;;;;11.50;4.38;;;;;;;;;;4905667;29;20286;-69
2023/05/10 04:10:51;;;;;;;6.47;3.97;;;;;;;;;;4922474;29;20036;-68
2023/05/10 04:13:16;;;;;;;7.13;4.63;;;;;;;;;;4927381;29;20031;-69
2023/05/10 04:15:43;;;;;;;6.67;3.77;;;;;;;;;;4922549;29;21153;-68
2023/05/10 04:18:08;;;;;;;9.95;4.53;;;;;;;;;;4921051;29;20378;-67
2023/05/10 04:20:33;;;;;;;9.60;4.50;;;;;;;;;;4920692;29;20114;-66
2023/05/10 04:22:58;;;;;;;14.02;4.40;;;;;;;;;;4922552;29;20322;-66
2023/05/10 04:25:24;;;;;;;7.87;4.10;;;;;;;;;;4922575;29;20126;-68
2023/05/10 04:27:49;;;;;;;6.67;4.23;;;;;;;;;;4909289;29;20298;-68
2023/05/10 04:30:14;;;;;;;7.60;4.33;;;;;;;;;;4923081;29;20032;-68
2023/05/10 04:32:39;;;;;;;7.53;4.43;;;;;;;;;;4911081;29;20317;-67
2023/05/10 04:35:05;;;;;;;11.40;4.43;;;;;;;;;;4923591;29;20038;-69
2023/05/10 04:37:30;;;;;;;12.40;4.60;;;;;;;;;;4922486;29;20035;-68
2023/05/10 04:39:56;;;;;;;8.27;4.30;;;;;;;7.75;nan;100747.88;4921434;29;20036;-69
2023/05/10 04:42:21;;;;;;;6.70;4.38;;;;;;;7.70;nan;100716.19;4919638;29;20031;-71
2023/05/10 04:44:46;;;;;;;13.10;4.90;;;;;;;7.88;nan;100726.94;4920131;29;20020;-70
2023/05/10 04:47:13;;;;;;;9.23;4.97;;;;;;;8.01;nan;100745.28;4921274;29;20064;-70
2023/05/10 04:49:38;;;;;;;7.57;4.32;;;;;;;8.15;nan;100751.38;4920654;29;20038;-70
2023/05/10 04:52:03;;;;;;;11.27;4.43;;;;;;;8.28;nan;100753.19;4918619;29;20023;-68
2023/05/10 04:54:29;;;;;;;8.70;4.75;;;;;;;8.35;nan;100751.38;4922189;29;20083;-68
2023/05/10 04:56:54;;;;;;;8.80;5.00;;;;;;;8.44;nan;100752.03;4911532;29;20047;-68
2023/05/10 04:59:19;;;;;;;11.25;4.63;;;;;;;8.56;nan;100750.41;4919482;29;20036;-68
2023/05/10 05:01:45;;;;;;;12.27;4.68;;;;;;;8.56;nan;100729.41;4921316;29;20170;-68
2023/05/10 05:04:10;;;;;;;13.48;5.38;;;;;;;8.70;nan;100738.09;4900076;29;20078;-68
2023/05/10 05:06:36;;;;;;;9.80;5.32;;;;;;;8.86;nan;100744.72;4903925;29;20118;-69
2023/05/10 05:09:01;;;;;;;9.60;5.05;;;;;;;8.88;nan;100740.91;4918199;29;20522;-69
2023/05/10 05:11:26;;;;;;;7.38;4.97;;;;;;;8.99;nan;100736.81;4921454;29;20080;-69
2023/05/10 05:13:52;;;;;;;9.02;4.95;;;;;;;9.15;nan;100748.72;4917380;29;20024;-67
2023/05/10 05:16:17;;;;;;;8.98;4.28;;;;;;;9.19;nan;100744.63;4920249;29;20495;-67
2023/05/10 05:18:43;;;;;;;10.80;5.05;;;;;;;9.31;nan;100736.91;4920573;29;20026;-66
2023/05/10 05:21:18;;;;;;;9.65;4.82;;;;;;;9.28;nan;100721.59;4921404;29;20091;-68
2023/05/10 05:23:44;;;;;;;8.80;4.72;;;;;;;9.57;nan;100751.78;4917414;29;20050;-68
2023/05/10 05:26:10;;;;;;;10.35;4.80;;;;;;;9.69;nan;100758.00;4920800;29;20036;-68
2023/05/10 05:28:37;;;;;;;11.77;5.07;;;;;;;9.68;nan;100743.25;4919007;29;20052;-69
2023/05/10 05:31:05;;;;;;;10.65;4.93;;;;;;;9.82;nan;100743.97;4920439;29;20028;-68
2023/05/10 05:33:31;;;;;;;13.73;5.03;;;;;;;;;;4921218;29;20032;-65
2023/05/10 05:36:00;;;;;;;11.63;4.90;;;;;;;;;;4919790;29;20379;-65
2023/05/10 05:38:26;;;;;;;6.70;4.20;;;;;;;;;;4918758;29;20028;-68
2023/05/10 05:40:51;;;;;;;12.00;5.20;;;;;;;;;;4922867;29;20039;-67
2023/05/10 05:43:16;;;;;;;8.90;4.60;;;;;;;;;;4910825;29;20043;-68
2023/05/10 05:45:41;;;;;;;9.40;4.70;;;;;;;;;;4907728;29;20826;-68
2023/05/10 05:48:06;;;;;;;10.90;5.40;;;;;;;;;;4919583;29;20283;-68
2023/05/10 05:50:32;;;;;;;6.90;4.13;;;;;;;;;;4901529;29;20283;-67
2023/05/10 05:52:57;;;;;;;10.75;4.88;;;;;;;;;;4922775;29;20043;-67
2023/05/10 05:55:23;;;;;;;5.90;4.57;;;;;;;;;;4923642;29;20387;-70
2023/05/10 05:57:49;;;;;;;9.80;4.80;;;;;;;;;;4913071;29;20118;-67
2023/05/10 06:00:14;;;;;;;16.57;5.33;;;;;;;;;;4917218;29;20071;-69
2023/05/10 06:02:39;;;;;;;8.30;4.80;;;;;;;;;;4921246;29;20266;-67
2023/05/10 06:05:05;;;;;;;6.47;4.70;;;;;;;;;;4910372;29;20028;-66
2023/05/10 06:07:30;;;;;;;11.27;4.97;;;;;;;;;;4916821;29;20039;-67
2023/05/10 06:09:55;;;;;;;8.67;5.00;;;;;;;;;;4918600;29;20028;-66
2023/05/10 06:12:20;;;;;;;8.90;5.13;;;;;;;;;;4917563;29;20028;-67
2023/05/10 06:14:46;;;;;;;9.50;5.03;;;;;;;;;;4921260;29;20024;-67
2023/05/10 06:17:11;;;;;;;7.40;4.50;;;;;;;;;;4924116;29;20130;-67
2023/05/10 06:19:36;;;;;;;5.85;5.03;;;;;;;;;;4924085;29;20333;-67
2023/05/10 06:22:02;;;;;;;11.02;4.85;;;;;;;;;;4924334;29;20087;-68
2023/05/10 06:24:27;;;;;;;6.70;4.95;;;;;;;;;;4923100;29;20032;-68
2023/05/10 06:26:52;;;;;;;7.93;5.00;;;;;;;;;;4913079;29;20028;-65
2023/05/10 06:29:18;;;;;;;11.80;5.18;;;;;;;;;;4921156;29;20572;-67
2023/05/10 06:31:43;;;;;;;9.20;4.40;;;;;;;;;;4921038;29;20115;-66
2023/05/10 06:34:08;;;;;;;9.53;4.83;;;;;;;;;;4923045;29;20293;-67
2023/05/10 06:36:34;;;;;;;12.45;5.65;;;;;;;;;;4923077;29;20024;-67
2023/05/10 06:38:59;;;;;;;8.65;5.15;;;;;;;;;;4924438;29;20036;-68
2023/05/10 06:41:24;;;;;;;8.10;4.97;;;;;;;;;;4927187;29;20027;-69
2023/05/10 06:43:49;;;;;;;12.27;5.80;;;;;;;;;;4912465;29;20556;-68
2023/05/10 06:46:15;;;;;;;11.37;5.10;;;;;;;;;;4921299;29;20391;-68
2023/05/10 06:48:40;;;;;;;8.63;5.23;;;;;;;;;;4921761;29;20074;-69
2023/05/10 06:51:05;;;;;;;7.80;4.93;;;;;;;;;;4909274;29;20024;-68
2023/05/10 06:53:30;;;;;;;6.63;5.33;;;;;;;;;;4921244;29;20726;-68
2023/05/10 06:55:56;;;;;;;7.93;5.30;;;;;;;12.98;nan;100729.22;4910788;29;20031;-68
2023/05/10 06:58:21;;;;;;;7.63;5.20;;;;;;;;;;4924503;29;20032;-69
2023/05/10 07:00:47;;;;;;;6.93;5.00;;;;;;;;;;4924101;29;20497;-69
2023/05/10 07:03:12;;;;;;;9.35;5.70;;;;;;;;;;4924506;29;20046;-68
2023/05/10 07:05:37;;;;;;;6.77;5.30;;;;;;;;;;4921392;29;20032;-69
2023/05/10 07:08:03;;;;;;;7.30;5.23;;;;;;;;;;4922372;29;20035;-69
2023/05/10 07:10:28;;;;;;;8.80;5.57;;;;;;;;;;4921301;29;20285;-69
2023/05/10 07:12:53;;;;;;;6.43;4.80;;;;;;;;;;4923720;29;20051;-69
2023/05/10 07:15:18;;;;;;;5.70;4.37;;;;;;;;;;4921548;29;20502;-70
2023/05/10 07:17:44;;;;;;;16.00;4.78;;;;;;;;;;4923552;29;20550;-68
2023/05/10 07:20:09;;;;;;;14.13;6.55;;;;;;;;;;4922352;29;20038;-68
2023/05/10 07:22:34;;;;;;;11.35;5.78;;;;;;;;;;4908710;29;20023;-68
2023/05/10 07:25:00;;;;;;;8.43;5.27;;;;;;;;;;4920753;29;20027;-68
2023/05/10 07:27:25;;;;;;;6.47;5.03;;;;;;;;;;4920419;29;20056;-68
2023/05/10 07:29:50;;;;;;;9.70;5.47;;;;;;;;;;4921384;29;20273;-70
2023/05/10 07:32:15;;;;;;;6.60;5.40;;;;;;;;;;4921498;29;20039;-67
2023/05/10 07:34:41;;;;;;;7.82;5.32;;;;;;;;;;4906387;29;20636;-67
2023/05/10 07:37:07;;;;;;;8.25;5.68;;;;;;;;;;4922695;29;20044;-68
2023/05/10 07:39:32;;;;;;;6.97;4.97;;;;;;;;;;4921837;29;20526;-67
2023/05/10 07:41:58;;;;;;;6.18;4.85;;;;;;;;;;4922573;29;20127;-67
2023/05/10 07:44:23;;;;;;;7.80;5.00;;;;;;;;;;4924295;29;20059;-67
2023/05/10 07:46:48;;;;;;;10.95;5.43;;;;;;;;;;4908534;29;20405;-66
2023/05/10 07:49:13;;;;;;;9.50;5.45;;;;;;;;;;4923690;29;20470;-68
2023/05/10 07:51:39;;;;;;;9.83;5.40;;;;;;;;;;4921882;29;20419;-66
2023/05/10 07:54:04;;;;;;;8.60;4.70;;;;;;;;;;4921459;29;20284;-67
2023/05/10 07:56:31;;;;;;;5.97;5.18;;;;;;;;;;4911399;29;20039;-67
2023/05/10 07:58:57;;;;;;;7.80;4.47;;;;;;;;;;4920926;29;20062;-67
2023/05/10 08:01:22;;;;;;;9.05;5.07;;;;;;;;;;4922193;29;20063;-68
2023/05/10 08:03:48;;;;;;;7.05;4.50;;;;;;;;;;4920707;29;20111;-69
2023/05/10 08:06:15;;;;;;;5.95;4.88;;;;;;;;;;4921448;29;20034;-67
2023/05/10 08:08:40;;;;;;;7.22;4.82;;;;;;;;;;4915364;29;20032;-66
2023/05/10 08:11:05;;;;;;;7.35;4.68;;;;;;;;;;4919927;29;20091;-66
2023/05/10 08:13:31;;;;;;;7.57;4.90;;;;;;;;;;4918796;29;20111;-65
2023/05/10 08:15:56;;;;;;;9.30;5.10;;;;;;;;;;4908695;29;21601;-69
2023/05/10 08:18:21;;;;;;;5.60;4.80;;;;;;;;;;4911669;29;20035;-68
2023/05/10 08:20:47;;;;;;;7.13;4.47;;;;;;;;;;4918124;29;20115;-67
2023/05/10 08:23:12;;;;;;;6.10;4.80;;;;;;;;;;4922780;29;20171;-67
2023/05/10 08:25:37;;;;;;;10.43;4.90;;;;;;;;;;4920892;29;20047;-68
2023/05/10 08:28:03;;;;;;;8.80;4.73;;;;;;;;;;4924693;29;20055;-67
2023/05/10 08:30:28;;;;;;;12.68;4.97;;;;;;;;;;4922254;29;20270;-67
2023/05/10 08:32:53;;;;;;;5.67;4.67;;;;;;;;;;4921699;29;20050;-67
2023/05/10 08:35:18;;;;;;;7.67;4.63;;;;;;;;;;4920048;29;20036;-68
2023/05/10 08:37:44;;;;;;;7.27;4.30;;;;;;;;;;4920283;29;20035;-67
2023/05/10 08:40:11;;;;;;;5.70;4.38;;;;;;;;;;4923869;29;20290;-67
2023/05/10 08:42:39;;;;;;;7.60;3.90;;;;;;;;;;4923678;29;20458;-67
2023/05/10 08:45:04;;;;;;;4.55;3.85;;;;;;;;;;4920821;29;20501;-67
2023/05/10 08:47:30;;;;;;;6.93;4.20;;;;;;;;;;4919066;29;20040;-66
2023/05/10 08:49:56;;;;;;;7.57;3.50;;;;;;;;;;4921193;29;20110;-67
2023/05/10 08:52:23;;;;;;;3.80;3.30;;;;;;;;;;4921871;29;20035;-67
2023/05/10 08:54:49;;;;;;;5.20;3.30;;;;;;;;;;4923439;29;20501;-67
2023/05/10 08:57:14;;;;;;;7.60;4.40;;;;;;;;;;4923675;29;20032;-67
2023/05/10 08:59:39;;;;;;;4.18;3.30;;;;;;;;;;4919493;29;20119;-67
2023/05/10 09:02:05;;;;;;;4.28;3.70;;;;;;;;;;4923469;29;20363;-67
2023/05/10 09:04:30;;;;;;;5.32;3.83;;;;;;;;;;4920462;29;20063;-69
2023/05/10 09:06:56;;;;;;;6.30;3.50;;;;;;;;;;4919387;29;20036;-67
2023/05/10 09:09:21;;;;;;;6.50;3.70;;;;;;;;;;4921547;29;20059;-67
2023/05/10 09:11:47;;;;;;;7.95;3.80;;;;;;;;;;4921919;29;20059;-67
2023/05/10 09:14:12;;;;;;;4.50;3.63;;;;;;;;;;4922319;29;20491;-67
2023/05/10 09:16:38;;;;;;;8.73;3.70;;;;;;;;;;4910876;29;20126;-68
2023/05/10 09:19:03;;;;;;;4.63;3.00;;;;;;;;;;4919091;29;20039;-68
2023/05/10 09:21:29;;;;;;;4.17;3.13;;;;;;;;;;4905787;29;20029;-69
2023/05/10 09:23:55;;;;;;;4.60;3.33;;;;;;;;;;4918913;29;20032;-69
2023/05/10 09:26:23;;;;;;;8.82;3.38;;;;;;;16.31;nan;100752.63;4920249;29;20094;-68
2023/05/10 09:28:56;;;;;;;4.85;3.30;;;;;;;;;;4911588;29;20055;-67
2023/05/10 09:31:23;;;;;;;5.00;3.30;;;;;;;;;;4922433;29;20074;-67
2023/05/10 09:33:49;;;;;;;5.90;2.97;;;;;;;;;;4919064;29;20513;-67
2023/05/10 09:36:14;;;;;;;5.47;3.25;;;;;;;;;;4906403;29;20040;-68
2023/05/10 09:38:51;;;;;;;5.78;3.38;;;;;;;;;;4918918;29;20126;-67
2023/05/10 09:41:17;;;;;;;4.85;2.80;;;;;;;;;;4918471;29;20024;-68
2023/05/10 09:43:42;;;;;;;4.85;3.00;;;;;;;;;;4921677;29;20047;-68
2023/05/10 09:46:11;;;;;;;5.47;3.07;;;;;;;;;;4921679;29;20032;-68
2023/05/10 09:48:46;;;;;;;8.07;3.28;;;;;;;;;;4905773;29;20115;-68
2023/05/10 09:51:22;;;;;;;6.05;3.08;;;;;;;16.92;nan;100672.44;4921003;29;20028;-67
2023/05/10 09:53:47;;;;;;;3.95;2.67;;;;;;;;;;4905317;29;20477;-68
2023/05/10 09:56:12;;;;;;;5.82;3.20;;;;;;;;;;4910021;29;20031;-68
2023/05/10 09:58:38;;;;;;;4.53;3.15;;;;;;;;;;4922830;29;20028;-68
2023/05/10 10:01:04;;;;;;;5.90;3.40;;;;;;;17.08;nan;100686.59;4924477;29;20035;-67
2023/05/10 10:03:30;;;;;;;5.93;3.40;;;;;;;17.19;nan;100674.91;4924980;29;20036;-67
2023/05/10 10:05:55;;;;;;;6.80;3.33;;;;;;;;;;4925039;29;20106;-68
2023/05/10 10:08:21;;;;;;;4.70;3.33;;;;;;;;;;4923502;29;20115;-68
2023/05/10 10:10:46;;;;;;;4.75;3.30;;;;;;;;;;4924017;29;20435;-68
2023/05/10 10:13:12;;;;;;;4.05;3.10;;;;;;;17.40;nan;100707.69;4925522;29;20044;-68
2023/05/10 10:15:38;;;;;;;7.15;2.92;;;;;;;;;;4917760;29;20032;-68
2023/05/10 10:18:04;;;;;;;8.05;2.97;;;;;;;;;;4922955;29;20035;-68
2023/05/10 10:20:30;;;;;;;3.80;2.47;;;;;;;;;;4906944;29;20039;-67
2023/05/10 10:22:55;;;;;;;4.43;2.90;;;;;;;;;;4925484;29;20558;-68
2023/05/10 10:25:24;;;;;;;5.70;2.50;;;;;;;;;;4922237;29;20274;-68
2023/05/10 10:27:53;;;;;;;4.43;2.75;;;;;;;;;;4922069;29;20055;-68
2023/05/10 10:30:26;;;;;;;4.30;2.67;;;;;;;;;;4925035;29;20028;-68
2023/05/10 10:33:13;;;;;;;3.00;2.63;;;;;;;;;;4909709;29;20035;-68
2023/05/10 10:35:38;;;;;;;4.53;2.63;;;;;;;;;;4922557;29;20024;-68
2023/05/10 10:38:04;;;;;;;3.70;2.65;;;;;;;17.71;nan;100627.88;4921990;29;20028;-68
2023/05/10 10:40:31;;;;;;;3.47;2.58;;;;;;;17.77;nan;100624.16;4923545;29;20075;-68
2023/05/10 10:42:57;;;;;;;4.20;2.50;;;;;;;17.72;nan;100669.41;4904870;29;20028;-68
2023/05/10 10:45:23;;;;;;;6.40;2.38;;;;;;;;;;4923468;29;20070;-69
2023/05/10 10:47:53;;;;;;;4.07;2.45;;;;;;;17.77;nan;100680.09;4922852;29;20059;-67
2023/05/10 10:50:18;;;;;;;4.60;2.60;;;;;;;;;;4922974;29;20036;-68
2023/05/10 10:52:45;;;;;;;3.95;2.63;;;;;;;17.92;nan;100677.44;4926076;29;20083;-68
2023/05/10 10:55:14;;;;;;;4.43;2.70;;;;;;;;;;4919531;29;20016;-70
2023/05/10 10:57:39;;;;;;;3.88;2.67;;;;;;;;;;4924600;29;20043;-69
2023/05/10 11:00:24;;;;;;;3.50;2.20;;;;;;;;;;4921009;29;20032;-68
2023/05/10 11:02:49;;;;;;;8.90;2.60;;;;;;;;;;4922307;29;20031;-68
2023/05/10 11:05:27;;;;;;;9.38;2.63;;;;;;;18.20;nan;100616.66;4915358;29;20028;-69
2023/05/10 11:07:54;;;;;;;5.22;2.70;;;;;;;;;;4922871;29;20027;-69
2023/05/10 11:10:21;;;;;;;8.77;2.40;;;;;;;;;;4922763;29;20052;-69
2023/05/10 11:13:02;;;;;;;4.10;2.40;;;;;;;;;;4923562;29;20042;-68
2023/05/10 11:15:32;;;;;;;4.45;2.20;;;;;;;18.29;nan;100641.66;4919940;29;20092;-68
2023/05/10 11:17:57;;;;;;;3.97;2.17;;;;;;;;;;4907359;29;20032;-69
2023/05/10 11:20:24;;;;;;;2.80;2.10;;;;;;;;;;4922769;29;20045;-70
2023/05/10 11:22:53;;;;;;;2.75;2.20;;;;;;;;;;4920996;29;20041;-69
2023/05/10 11:25:19;;;;;;;4.68;2.13;;;;;;;;;;4923853;29;20122;-70
2023/05/10 11:27:47;;;;;;;3.10;2.15;;;;;;;;;;4921029;29;20195;-68
2023/05/10 11:30:14;;;;;;;3.47;2.10;;;;;;;18.39;nan;100600.84;4920282;29;20040;-68
2023/05/10 11:32:40;;;;;;;5.85;1.77;;;;;;;;;;4922530;29;20024;-68
2023/05/10 11:35:07;;;;;;;1.88;1.70;;;;;;;;;;4921634;29;20042;-69
2023/05/10 11:37:34;;;;;;;2.83;2.25;;;;;;;;;;4904742;29;20126;-69
2023/05/10 11:39:59;;;;;;;2.78;1.88;;;;;;;18.68;nan;100547.69;4921562;29;20036;-69
2023/05/10 11:42:25;;;;;;;2.10;1.90;;;;;;;18.76;nan;100517.78;4923938;29;20151;-68
2023/05/10 11:44:50;;;;;;;3.13;2.00;;;;;;;18.76;nan;100613.81;4923855;29;20036;-68
2023/05/10 11:47:16;;;;;;;4.13;1.90;;;;;;;18.75;nan;100592.69;4920908;29;20027;-68
2023/05/10 11:49:44;;;;;;;2.47;2.10;;;;;;;;;;4921613;29;20031;-67
2023/05/10 11:52:13;;;;;;;2.92;1.90;;;;;;;18.73;nan;100587.66;4924074;29;20043;-67
2023/05/10 11:54:46;;;;;;;3.43;1.80;;;;;;;18.69;nan;100573.25;4924273;29;20040;-67
2023/05/10 11:57:11;;;;;;;5.25;2.10;;;;;;;18.87;nan;100578.00;4925743;29;20059;-69
2023/05/10 11:59:37;;;;;;;4.93;2.00;;;;;;;18.92;nan;100641.22;4920441;29;20063;-69
2023/05/10 12:02:03;;;;;;;4.35;1.70;;;;;;;19.03;nan;100581.38;4910138;29;20114;-70
2023/05/10 12:04:29;;;;;;;2.60;1.80;;;;;;;19.05;nan;100557.06;4921170;29;20039;-69
2023/05/10 12:06:54;;;;;;;2.60;1.50;;;;;;;19.16;nan;100622.69;4917843;29;20023;-68
2023/05/10 12:09:20;;;;;;;2.70;1.67;;;;;;;19.21;nan;100528.41;4921755;29;20040;-67
2023/05/10 12:11:45;;;;;;;3.78;2.00;;;;;;;19.23;nan;100558.31;4917439;29;20034;-68
2023/05/10 12:14:11;;;;;;;5.20;1.98;;;;;;;19.22;nan;100583.38;4907506;29;20126;-69
2023/05/10 12:16:36;;;;;;;4.40;1.90;;;;;;;;;;4919797;29;20087;-68
2023/05/10 12:19:01;;;;;;;2.10;1.83;;;;;;;19.10;nan;100578.41;4919913;29;20047;-67
2023/05/10 12:21:27;;;;;;;5.60;1.85;;;;;;;;;;4921024;29;20480;-68
2023/05/10 12:23:55;;;;;;;3.75;2.03;;;;;;;19.04;nan;100584.84;4919024;29;20032;-66
2023/05/10 12:26:24;;;;;;;3.20;1.65;;;;;;;;;;4920105;29;20067;-69
2023/05/10 12:28:50;;;;;;;5.50;1.75;;;;;;;19.03;nan;100604.59;4921158;29;20059;-68
2023/05/10 12:31:15;;;;;;;2.72;1.70;;;;;;;18.96;nan;100550.72;4918323;29;21118;-68
2023/05/10 12:33:42;;;;;;;3.20;1.77;;;;;;;18.99;nan;100521.63;4898616;29;20043;-69
2023/05/10 12:36:08;;;;;;;2.15;1.70;;;;;;;;;;4917277;29;20032;-69
2023/05/10 12:38:38;;;;;;;3.35;1.83;;;;;;;18.85;nan;100561.47;4920693;29;20060;-68
2023/05/10 12:41:07;;;;;;;3.42;1.85;;;;;;;;;;4922862;29;20502;-68
2023/05/10 12:43:33;;;;;;;4.63;2.17;;;;;;;18.90;nan;100560.66;4920757;29;20071;-69
2023/05/10 12:46:05;;;;;;;5.03;1.90;;;;;;;18.88;nan;100566.25;4919628;29;20045;-69
2023/05/10 12:48:31;;;;;;;1.88;1.70;;;;;;;;;;4920233;29;21441;-68
2023/05/10 12:50:56;;;;;;;4.32;1.80;;;;;;;18.80;nan;100590.06;4918730;29;20028;-67
2023/05/10 12:53:22;;;;;;;2.30;1.67;;;;;;;;;;4903041;29;20671;-66
2023/05/10 12:55:47;;;;;;;1.73;1.40;;;;;;;19.00;nan;100533.09;4908216;29;20494;-68
2023/05/10 12:58:12;;;;;;;4.18;1.55;;;;;;;;;;4921811;29;20503;-72
2023/05/10 13:00:37;;;;;;;1.87;1.60;;;;;;;;;;4919276;29;20031;-72
2023/05/10 13:03:04;;;;;;;4.05;1.60;;;;;;;;;;4924030;29;20805;-73
2023/05/10 13:05:30;;;;;;;1.70;1.40;;;;;;;18.85;nan;100526.00;4918082;29;20530;-69
2023/05/10 13:07:56;;;;;;;2.58;1.45;;;;;;;18.83;nan;100506.78;4902957;29;20121;-69
2023/05/10 13:10:23;;;;;;;5.43;1.77;;;;;;;18.85;nan;100478.75;4917618;29;20032;-69
2023/05/10 13:12:48;;;;;;;5.68;1.50;;;;;;;18.87;nan;100562.00;4921263;29;20020;-71
2023/05/10 13:15:14;;;;;;;1.88;1.60;;;;;;;;;;4919181;29;20038;-69
2023/05/10 13:17:40;;;;;;;5.18;1.60;;;;;;;18.98;nan;100434.63;4916982;29;20020;-68
2023/05/10 13:20:06;;;;;;;3.65;1.58;;;;;;;19.05;nan;100560.53;4917704;29;20055;-69
2023/05/10 13:22:31;;;;;;;6.88;1.65;;;;;;;;;;4919723;29;20068;-70
2023/05/10 13:24:57;;;;;;;3.47;1.60;;;;;;;;;;4904598;29;20122;-68
2023/05/10 13:27:22;;;;;;;2.57;1.47;;;;;;;19.06;nan;100510.66;4918188;29;20043;-71
2023/05/10 13:29:47;;;;;;;3.80;1.70;;;;;;;19.03;nan;100544.00;4919048;29;20326;-68
2023/05/10 13:32:13;;;;;;;3.42;1.52;;;;;;;;;;4917961;29;20115;-70
2023/05/10 13:34:38;;;;;;;4.47;1.70;;;;;;;19.02;nan;100509.59;4903523;29;20117;-69
2023/05/10 13:37:03;;;;;;;5.80;2.40;;;;;;;19.04;nan;100510.13;4902729;29;20475;-70
2023/05/10 13:39:33;;;;;;;2.78;1.83;;;;;;;18.95;nan;100483.22;4920417;29;20709;-69
2023/05/10 13:41:58;;;;;;;;;;;;;;;19.03;nan;100513.84;4919117;29;20072;-68
2023/05/10 13:44:23;;;;;;;3.00;1.77;;;;;;;19.06;nan;100505.31;4921533;29;20361;-68
2023/05/10 13:46:49;;;;;;;5.22;1.60;;;;;;;19.10;nan;100493.75;4920083;29;20420;-68
2023/05/10 13:49:14;;;;;;;1.70;1.60;;;;;;;;;;4922420;29;20027;-67